Time;durP1;ratioP1;P1;durP2;ratioP2;P2;SDS_P1;SDS_P2;PMS_P1;PMS_P2;Temp;Humidity;BMP_temperature;BMP_pressure;BME280_temperature;BME280_humidity;BME280_pressure;Samples;Min_cycle;Max_cycle;Signal;HPM_P1;HPM_P2
2022/12/25 00:01:52;;;;;;;14.02;5.10;;;8.70;99.90;;;;;;5042390;28;20028;-40
2022/12/25 00:04:18;;;;;;;15.50;5.68;;;8.80;99.90;;;;;;5042339;28;20029;-40
2022/12/25 00:06:43;;;;;;;15.85;5.65;;;8.80;99.90;;;;;;5042796;28;20029;-40
2022/12/25 00:09:09;;;;;;;12.23;5.45;;;8.90;99.90;;;;;;5041018;28;20389;-40
2022/12/25 00:11:35;;;;;;;11.77;4.93;;;8.90;99.90;;;;;;5042263;28;20409;-38
2022/12/25 00:14:00;;;;;;;17.27;5.53;;;9.00;99.90;;;;;;5041115;28;20024;-39
2022/12/25 00:16:26;;;;;;;12.10;4.82;;;9.00;99.90;;;;;;5041316;28;20372;-40
2022/12/25 00:18:54;;;;;;;14.55;4.95;;;9.10;99.90;;;;;;5042663;28;20017;-42
2022/12/25 00:21:20;;;;;;;10.23;4.43;;;9.10;99.90;;;;;;5041645;28;20032;-41
2022/12/25 00:23:46;;;;;;;11.63;4.35;;;9.10;99.90;;;;;;5041998;28;20032;-39
2022/12/25 00:26:15;;;;;;;11.13;4.60;;;9.10;99.90;;;;;;5042184;28;20033;-35
2022/12/25 00:28:41;;;;;;;14.23;4.30;;;9.20;99.90;;;;;;5042552;28;20526;-36
2022/12/25 00:31:15;;;;;;;12.25;4.20;;;9.20;99.90;;;;;;5041425;28;20029;-40
2022/12/25 00:33:43;;;;;;;14.02;4.75;;;9.20;99.90;;;;;;5042621;28;20049;-40
2022/12/25 00:36:10;;;;;;;11.77;4.20;;;9.20;99.90;;;;;;5042141;28;20714;-40
2022/12/25 00:38:37;;;;;;;9.88;3.70;;;9.20;99.90;;;;;;5041645;28;20064;-39
2022/12/25 00:41:07;;;;;;;13.38;4.07;;;9.20;99.90;;;;;;5042222;28;20021;-40
2022/12/25 00:43:32;;;;;;;14.02;3.85;;;9.20;99.90;;;;;;5042100;28;20033;-39
2022/12/25 00:46:03;;;;;;;10.90;4.15;;;9.20;99.90;;;;;;5041531;28;20032;-40
2022/12/25 00:48:30;;;;;;;16.05;3.88;;;9.20;99.90;;;;;;5042126;28;20051;-40
2022/12/25 00:50:57;;;;;;;8.75;3.50;;;9.30;99.90;;;;;;5041729;28;20166;-40
2022/12/25 00:53:24;;;;;;;8.57;3.70;;;9.30;99.90;;;;;;5042093;28;20037;-43
2022/12/25 00:55:54;;;;;;;9.35;3.70;;;9.30;99.90;;;;;;5043262;28;20014;-40
2022/12/25 00:58:21;;;;;;;11.15;3.72;;;9.30;99.90;;;;;;5042061;28;20068;-41
2022/12/25 01:00:47;;;;;;;10.10;3.92;;;9.30;99.90;;;;;;5041310;28;20013;-39
2022/12/25 01:03:14;;;;;;;11.07;3.60;;;9.40;99.90;;;;;;5041275;28;20041;-41
2022/12/25 01:05:39;;;;;;;9.05;3.40;;;9.40;99.90;;;;;;5041424;28;20036;-40
2022/12/25 01:08:05;;;;;;;8.50;3.45;;;9.40;99.90;;;;;;5041188;28;20087;-41
2022/12/25 01:10:31;;;;;;;10.10;3.45;;;9.40;99.90;;;;;;5041321;28;20028;-41
2022/12/25 01:12:56;;;;;;;12.38;3.55;;;9.40;99.90;;;;;;5041203;28;20028;-41
2022/12/25 01:15:22;;;;;;;10.15;3.38;;;9.40;99.90;;;;;;5040809;28;20055;-41
2022/12/25 01:17:47;;;;;;;10.00;3.30;;;9.50;99.90;;;;;;5041950;28;20043;-41
2022/12/25 01:20:15;;;;;;;11.77;3.25;;;9.50;99.90;;;;;;5041213;28;20032;-41
2022/12/25 01:22:45;;;;;;;10.23;3.35;;;9.50;99.90;;;;;;5041975;28;20464;-38
2022/12/25 01:25:12;;;;;;;10.35;3.55;;;9.50;99.90;;;;;;5040749;28;20086;-41
2022/12/25 01:27:39;;;;;;;9.65;3.17;;;9.50;99.90;;;;;;5039343;28;20025;-41
2022/12/25 01:30:05;;;;;;;11.85;3.65;;;9.60;99.90;;;;;;5039811;28;20405;-43
2022/12/25 01:32:31;;;;;;;11.90;3.30;;;9.60;99.90;;;;;;5040684;28;20067;-44
2022/12/25 01:34:57;;;;;;;10.02;3.30;;;9.60;99.90;;;;;;5039913;28;20040;-39
2022/12/25 01:37:25;;;;;;;9.95;3.58;;;9.60;99.90;;;;;;5039105;28;20535;-39
2022/12/25 01:39:51;;;;;;;8.75;3.78;;;9.60;99.90;;;;;;5036082;28;20135;-39
2022/12/25 01:42:19;;;;;;;10.18;4.10;;;9.60;99.90;;;;;;5040749;28;20549;-39
2022/12/25 01:44:44;;;;;;;7.38;3.50;;;9.70;99.90;;;;;;5041804;28;20029;-42
2022/12/25 01:47:10;;;;;;;7.07;3.42;;;9.70;99.90;;;;;;5040238;28;20047;-39
2022/12/25 01:49:38;;;;;;;6.25;2.83;;;9.70;99.90;;;;;;5041745;28;20556;-41
2022/12/25 01:52:12;;;;;;;9.40;3.05;;;9.70;99.90;;;;;;5040670;28;20032;-40
2022/12/25 01:54:47;;;;;;;11.15;3.55;;;9.70;99.90;;;;;;5039878;28;20100;-39
2022/12/25 01:57:28;;;;;;;9.48;3.53;;;9.70;99.90;;;;;;5040207;28;20108;-40
2022/12/25 01:59:55;;;;;;;11.32;3.63;;;9.70;99.90;;;;;;5021429;28;20033;-41
2022/12/25 02:02:21;;;;;;;9.35;3.50;;;9.70;99.90;;;;;;5035779;28;20025;-41
2022/12/25 02:04:59;;;;;;;9.63;3.50;;;9.70;99.90;;;;;;5041199;28;20395;-38
2022/12/25 02:07:27;;;;;;;7.22;3.38;;;9.80;99.90;;;;;;5041288;28;20033;-40
2022/12/25 02:09:52;;;;;;;10.18;3.42;;;9.80;99.90;;;;;;5040741;28;20033;-39
2022/12/25 02:12:25;;;;;;;11.07;3.97;;;9.70;99.90;;;;;;5040244;28;20024;-39
2022/12/25 02:14:54;;;;;;;7.32;3.45;;;9.70;99.90;;;;;;5040649;28;20357;-41
2022/12/25 02:17:49;;;;;;;9.00;3.75;;;9.80;99.90;;;;;;5039866;28;20025;-41
2022/12/25 02:20:51;;;;;;;10.90;3.45;;;9.80;99.90;;;;;;5040290;28;20469;-39
2022/12/25 02:23:36;;;;;;;9.45;3.53;;;9.80;99.90;;;;;;5039519;28;20330;-39
2022/12/25 02:26:11;;;;;;;8.57;3.88;;;9.80;99.90;;;;;;5039927;28;20593;-36
2022/12/25 02:28:55;;;;;;;8.07;3.83;;;9.80;99.90;;;;;;5040834;28;20036;-39
2022/12/25 02:31:41;;;;;;;7.55;3.40;;;9.80;99.90;;;;;;5040007;28;20025;-40
2022/12/25 02:34:13;;;;;;;8.80;3.40;;;9.80;99.90;;;;;;5036957;28;20053;-41
2022/12/25 02:36:53;;;;;;;10.70;3.60;;;9.80;99.90;;;;;;5040595;28;20052;-40
2022/12/25 02:39:58;;;;;;;11.07;3.88;;;9.80;99.90;;;;;;5037307;28;20776;-41
2022/12/25 03:08:50;;;;;;;8.25;3.25;;;9.70;99.90;;;;;;5044442;28;20048;-38
2022/12/25 03:11:31;;;;;;;9.07;3.40;;;9.70;99.90;;;;;;5043741;28;20049;-41
2022/12/25 03:16:53;;;;;;;6.85;3.42;;;9.80;99.90;;;;;;5044084;28;20507;-40
2022/12/25 03:27:41;;;;;;;7.43;3.33;;;9.80;99.90;;;;;;5023861;28;20084;-40
2022/12/25 03:33:09;;;;;;;8.15;3.60;;;9.80;99.90;;;;;;5023782;28;20110;-40
2022/12/25 03:36:21;;;;;;;9.07;3.28;;;9.80;99.90;;;;;;5041819;28;20079;-40
2022/12/25 03:39:30;;;;;;;6.63;3.13;;;9.90;99.90;;;;;;5043582;28;20025;-41
2022/12/25 03:49:28;;;;;;;9.18;3.75;;;9.90;99.90;;;;;;5042769;28;20697;-40
2022/12/25 04:37:23;;;;;;;8.63;3.13;;;9.80;99.90;;;;;;5042326;28;20039;-39
2022/12/25 04:39:48;;;;;;;5.25;2.80;;;9.80;99.90;;;;;;5043217;28;20021;-39
2022/12/25 04:42:15;;;;;;;7.03;3.13;;;9.80;99.90;;;;;;5042350;28;20121;-40
2022/12/25 04:44:41;;;;;;;6.25;2.95;;;9.80;99.90;;;;;;5042602;28;20029;-39
2022/12/25 04:47:06;;;;;;;7.65;2.95;;;9.80;99.90;;;;;;5042710;28;20025;-40
2022/12/25 04:49:32;;;;;;;5.47;2.75;;;9.90;99.90;;;;;;5042727;28;20044;-41
2022/12/25 04:51:57;;;;;;;9.07;3.22;;;9.90;99.90;;;;;;5041598;28;20029;-41
2022/12/25 04:54:23;;;;;;;7.93;3.33;;;9.90;99.90;;;;;;5042459;28;20447;-41
2022/12/25 04:56:48;;;;;;;5.18;2.53;;;9.90;99.90;;;;;;5043161;28;20096;-41
2022/12/25 04:59:14;;;;;;;9.10;2.95;;;9.90;99.90;;;;;;5041399;28;20024;-39
2022/12/25 05:01:39;;;;;;;5.93;3.00;;;9.90;99.90;;;;;;5042518;28;20021;-39
2022/12/25 05:04:05;;;;;;;5.80;2.95;;;9.80;99.90;;;;;;5041265;28;20023;-40
2022/12/25 05:06:31;;;;;;;7.20;3.05;;;9.80;99.90;;;;;;5041775;28;20042;-39
2022/12/25 05:08:56;;;;;;;5.07;2.65;;;9.80;99.90;;;;;;5042077;28;20034;-40
2022/12/25 05:11:22;;;;;;;4.70;2.65;;;9.80;99.90;;;;;;5041744;28;20128;-40
2022/12/25 05:13:47;;;;;;;4.03;2.88;;;9.70;99.90;;;;;;5042549;28;20060;-41
2022/12/25 05:16:16;;;;;;;4.93;2.80;;;9.70;99.90;;;;;;5042064;28;20370;-40
2022/12/25 05:18:42;;;;;;;4.57;2.80;;;9.60;99.90;;;;;;5040863;28;20238;-41
2022/12/25 05:21:10;;;;;;;6.07;2.88;;;9.60;99.90;;;;;;5041215;28;20456;-40
2022/12/25 05:23:35;;;;;;;6.35;3.20;;;9.50;99.90;;;;;;5041964;28;20144;-39
2022/12/25 05:26:07;;;;;;;6.13;2.83;;;9.50;99.90;;;;;;5040939;28;20028;-39
2022/12/25 05:28:34;;;;;;;7.72;2.72;;;9.50;99.90;;;;;;5041184;28;20882;-39
2022/12/25 05:31:00;;;;;;;3.70;2.80;;;9.50;99.90;;;;;;5040692;28;20029;-38
2022/12/25 05:33:25;;;;;;;6.55;2.67;;;9.40;99.90;;;;;;5040378;28;20056;-40
2022/12/25 05:35:51;;;;;;;3.88;2.67;;;9.40;99.90;;;;;;5042045;28;20024;-40
2022/12/25 05:38:16;;;;;;;4.85;2.80;;;9.40;99.90;;;;;;5041385;28;20029;-40
2022/12/25 05:40:42;;;;;;;5.50;2.78;;;9.30;99.90;;;;;;5040860;28;20194;-41
2022/12/25 05:43:08;;;;;;;8.55;3.03;;;9.30;99.90;;;;;;5041698;28;20028;-41
2022/12/25 05:45:34;;;;;;;5.35;2.70;;;9.30;99.90;;;;;;5041805;28;20526;-40
2022/12/25 05:48:00;;;;;;;6.40;3.03;;;9.30;99.90;;;;;;5040771;28;20055;-40
2022/12/25 05:50:25;;;;;;;6.95;2.97;;;9.20;99.90;;;;;;5041578;28;20041;-41
2022/12/25 05:52:51;;;;;;;6.45;2.65;;;9.20;99.90;;;;;;5041940;28;20036;-40
2022/12/25 05:55:17;;;;;;;7.22;3.15;;;9.20;99.90;;;;;;5039954;28;20025;-40
2022/12/25 05:57:42;;;;;;;6.50;3.10;;;9.20;99.90;;;;;;5041779;28;20039;-38
2022/12/25 06:00:08;;;;;;;4.63;2.60;;;9.10;99.90;;;;;;5040490;28;20174;-40
2022/12/25 06:02:34;;;;;;;9.70;2.97;;;9.20;99.90;;;;;;5040350;28;20029;-39
2022/12/25 06:05:03;;;;;;;7.13;2.92;;;9.10;99.90;;;;;;5040794;28;20021;-39
2022/12/25 06:07:29;;;;;;;5.93;2.70;;;9.10;99.90;;;;;;5040772;28;20179;-39
2022/12/25 06:09:55;;;;;;;8.70;2.90;;;9.10;99.90;;;;;;5040809;28;20029;-40
2022/12/25 06:12:20;;;;;;;5.70;3.28;;;9.10;99.90;;;;;;5040665;28;20082;-40
2022/12/25 06:14:46;;;;;;;4.43;3.05;;;9.10;99.90;;;;;;5040570;28;20039;-40
2022/12/25 06:17:11;;;;;;;6.97;2.80;;;9.10;99.90;;;;;;5041105;28;20025;-40
2022/12/25 06:19:37;;;;;;;7.85;3.20;;;9.10;99.90;;;;;;5041194;28;20063;-38
2022/12/25 06:22:02;;;;;;;6.95;3.13;;;9.10;99.90;;;;;;5040388;28;20127;-39
2022/12/25 06:24:28;;;;;;;7.07;2.90;;;9.10;99.90;;;;;;5041999;28;20048;-39
2022/12/25 06:26:53;;;;;;;5.25;3.15;;;9.10;99.90;;;;;;5041161;28;20029;-36
2022/12/25 06:29:19;;;;;;;6.50;3.60;;;9.20;99.90;;;;;;5040441;28;20057;-40
2022/12/25 06:31:45;;;;;;;5.82;3.25;;;9.20;99.90;;;;;;5044469;28;20032;-38
2022/12/25 06:34:10;;;;;;;7.15;3.67;;;9.20;99.90;;;;;;5044473;28;20061;-40
2022/12/25 06:36:36;;;;;;;7.93;3.58;;;9.20;99.90;;;;;;5045079;28;20029;-40
2022/12/25 06:39:02;;;;;;;5.95;3.50;;;9.30;99.90;;;;;;5044637;28;20598;-40
2022/12/25 06:41:29;;;;;;;7.88;3.72;;;9.30;99.90;;;;;;5044975;28;20094;-40
2022/12/25 06:43:59;;;;;;;6.70;3.58;;;9.30;99.90;;;;;;5044724;28;20044;-40
2022/12/25 06:46:27;;;;;;;8.85;3.50;;;9.40;99.90;;;;;;5045350;28;20095;-38
2022/12/25 06:48:53;;;;;;;6.78;3.67;;;9.40;99.90;;;;;;5045322;28;20563;-39
2022/12/25 06:51:21;;;;;;;7.35;3.70;;;9.40;99.90;;;;;;5043867;28;20024;-40
2022/12/25 06:53:48;;;;;;;8.77;3.83;;;9.40;99.90;;;;;;5045032;28;20665;-39
2022/12/25 06:56:16;;;;;;;5.43;3.90;;;9.40;99.90;;;;;;5044095;28;20103;-41
2022/12/25 06:59:03;;;;;;;8.00;3.90;;;9.40;99.90;;;;;;5044312;28;20021;-40
2022/12/25 07:01:50;;;;;;;8.15;4.25;;;9.40;99.90;;;;;;5044850;28;20025;-40
2022/12/25 07:04:30;;;;;;;5.97;3.38;;;9.40;99.90;;;;;;5043521;28;20650;-40
2022/12/25 07:06:57;;;;;;;6.75;4.15;;;9.40;99.90;;;;;;5043814;28;20055;-40
2022/12/25 07:09:22;;;;;;;4.78;3.85;;;9.40;99.90;;;;;;5044590;28;20045;-39
2022/12/25 07:11:48;;;;;;;7.47;3.90;;;9.40;99.90;;;;;;5043792;28;20071;-40
2022/12/25 07:14:18;;;;;;;4.95;3.70;;;9.40;99.90;;;;;;5043568;28;20029;-40
2022/12/25 07:16:44;;;;;;;10.32;4.30;;;9.40;99.90;;;;;;5044348;28;20052;-41
2022/12/25 07:19:09;;;;;;;6.93;4.35;;;9.40;99.90;;;;;;5043225;28;20116;-40
2022/12/25 07:21:35;;;;;;;6.15;4.20;;;9.40;99.90;;;;;;5043955;28;20052;-41
2022/12/25 07:24:00;;;;;;;8.05;4.45;;;9.40;99.90;;;;;;5043403;28;20033;-38
2022/12/25 07:26:26;;;;;;;8.30;4.30;;;9.40;99.90;;;;;;5043232;28;20067;-40
2022/12/25 07:28:53;;;;;;;9.55;4.75;;;9.50;99.90;;;;;;5043481;28;20782;-38
2022/12/25 07:31:19;;;;;;;7.47;5.22;;;9.50;99.90;;;;;;5043697;28;20033;-40
2022/12/25 07:33:44;;;;;;;8.75;4.80;;;9.50;99.90;;;;;;5042559;28;20570;-39
2022/12/25 07:36:10;;;;;;;7.20;5.00;;;9.50;99.90;;;;;;5042890;28;20025;-41
2022/12/25 07:38:36;;;;;;;8.27;5.18;;;9.50;99.90;;;;;;5043646;28;20095;-40
2022/12/25 07:41:02;;;;;;;7.55;4.82;;;9.50;99.90;;;;;;5022365;28;20132;-41
2022/12/25 07:43:27;;;;;;;8.40;4.72;;;9.60;99.90;;;;;;5042710;28;20029;-38
2022/12/25 07:45:55;;;;;;;9.48;4.57;;;9.60;99.90;;;;;;5042625;28;20072;-42
2022/12/25 07:48:20;;;;;;;10.80;4.90;;;9.60;99.90;;;;;;5043165;28;20075;-39
2022/12/25 07:50:46;;;;;;;8.18;4.80;;;9.60;99.90;;;;;;5043916;28;20385;-40
2022/12/25 07:53:11;;;;;;;8.95;4.63;;;9.60;99.90;;;;;;5042780;28;20058;-40
2022/12/25 07:55:37;;;;;;;8.50;4.82;;;9.60;99.90;;;;;;5043304;28;20421;-39
2022/12/25 07:58:02;;;;;;;7.15;4.05;;;9.60;99.90;;;;;;5042516;28;20048;-37
2022/12/25 08:00:31;;;;;;;8.45;4.80;;;9.70;99.90;;;;;;5043533;28;20021;-40
2022/12/25 08:02:57;;;;;;;8.93;4.32;;;9.70;99.90;;;;;;5043075;28;20036;-39
2022/12/25 08:05:23;;;;;;;5.65;4.22;;;9.70;99.90;;;;;;5042691;28;20017;-39
2022/12/25 08:07:52;;;;;;;5.78;4.00;;;9.70;99.90;;;;;;5042335;28;20037;-39
2022/12/25 08:10:18;;;;;;;8.05;4.82;;;9.80;99.90;;;;;;5039147;28;20029;-40
2022/12/25 08:12:43;;;;;;;7.13;4.38;;;9.80;99.90;;;;;;5042928;28;20028;-40
2022/12/25 08:15:09;;;;;;;7.35;4.60;;;9.80;99.90;;;;;;5041416;28;20029;-40
2022/12/25 08:17:35;;;;;;;7.10;4.60;;;9.80;99.90;;;;;;5043511;28;20025;-40
2022/12/25 08:20:00;;;;;;;9.30;4.30;;;9.80;99.90;;;;;;5042327;28;20025;-41
2022/12/25 08:22:26;;;;;;;6.78;4.15;;;9.80;99.90;;;;;;5042471;28;20037;-40
2022/12/25 08:24:51;;;;;;;7.32;3.97;;;9.80;99.90;;;;;;5042407;28;20044;-40
2022/12/25 08:27:17;;;;;;;7.22;3.70;;;9.90;99.90;;;;;;5042366;28;20021;-40
2022/12/25 08:29:43;;;;;;;5.13;3.70;;;9.90;99.90;;;;;;5041990;28;20102;-38
2022/12/25 08:32:09;;;;;;;7.80;4.20;;;9.90;99.90;;;;;;5042595;28;20117;-41
2022/12/25 08:34:37;;;;;;;5.97;3.78;;;9.90;99.90;;;;;;5042745;28;20041;-40
2022/12/25 08:37:02;;;;;;;8.23;3.70;;;9.90;99.90;;;;;;5041714;28;20074;-41
2022/12/25 08:39:28;;;;;;;6.50;3.20;;;9.90;99.90;;;;;;5040846;28;20471;-40
2022/12/25 08:41:53;;;;;;;7.57;3.75;;;9.90;99.90;;;;;;5041423;28;20025;-40
2022/12/25 08:44:19;;;;;;;6.72;3.88;;;9.90;99.90;;;;;;5040758;28;20021;-41
2022/12/25 08:46:45;;;;;;;4.70;3.60;;;9.90;99.90;;;;;;5041986;28;20033;-40
2022/12/25 08:49:10;;;;;;;9.02;3.47;;;9.90;99.90;;;;;;5040614;28;20036;-41
2022/12/25 08:51:36;;;;;;;5.93;3.20;;;9.90;99.90;;;;;;5041722;28;20579;-40
2022/12/25 08:54:01;;;;;;;6.63;3.47;;;10.00;99.90;;;;;;5040675;28;20083;-41
2022/12/25 08:56:27;;;;;;;6.50;3.63;;;10.00;99.90;;;;;;5041092;28;20698;-39
2022/12/25 08:58:53;;;;;;;7.07;4.03;;;10.00;99.90;;;;;;5041753;28;20024;-40
2022/12/25 09:01:18;;;;;;;7.25;4.18;;;10.00;99.90;;;;;;5040589;28;20147;-41
2022/12/25 09:03:46;;;;;;;4.95;3.63;;;10.00;99.90;;;;;;5040709;28;20033;-41
2022/12/25 09:06:14;;;;;;;6.03;3.95;;;10.00;99.90;;;;;;5040663;28;20053;-41
2022/12/25 09:08:40;;;;;;;5.45;3.65;;;10.00;99.90;;;;;;5040465;28;20583;-40
2022/12/25 09:11:12;;;;;;;5.15;3.60;;;10.10;99.90;;;;;;5039616;28;20021;-40
2022/12/25 09:13:38;;;;;;;5.47;3.35;;;10.10;99.90;;;;;;5041413;28;20060;-41
2022/12/25 09:16:09;;;;;;;4.55;3.13;;;10.10;99.90;;;;;;5040926;28;20100;-40
2022/12/25 09:18:34;;;;;;;5.57;3.38;;;10.10;99.90;;;;;;5041205;28;20040;-39
2022/12/25 09:21:02;;;;;;;6.22;3.80;;;10.10;99.90;;;;;;5040281;28;20025;-40
2022/12/25 09:23:29;;;;;;;6.32;3.80;;;10.20;99.90;;;;;;5041618;28;20025;-39
2022/12/25 09:25:56;;;;;;;7.90;3.80;;;10.10;99.90;;;;;;5041151;28;20024;-40
2022/12/25 09:28:22;;;;;;;5.72;3.75;;;10.20;99.90;;;;;;5041499;28;20039;-41
2022/12/25 09:30:52;;;;;;;7.22;4.03;;;10.20;99.90;;;;;;5041620;28;20674;-41
2022/12/25 09:33:18;;;;;;;8.40;4.18;;;10.20;99.90;;;;;;5040465;28;20044;-39
2022/12/25 09:35:55;;;;;;;4.43;3.80;;;10.20;99.90;;;;;;5041605;28;20522;-40
2022/12/25 09:38:21;;;;;;;6.05;3.80;;;10.20;99.90;;;;;;5037411;28;20041;-39
2022/12/25 09:40:47;;;;;;;7.80;3.47;;;10.20;99.90;;;;;;5041319;28;20032;-41
2022/12/25 09:43:18;;;;;;;3.90;2.97;;;10.20;99.90;;;;;;5040047;28;20025;-39
2022/12/25 09:45:44;;;;;;;6.40;3.58;;;10.20;99.90;;;;;;5041490;28;20020;-39
2022/12/25 09:48:13;;;;;;;6.35;3.08;;;10.20;99.90;;;;;;5039070;28;20389;-37
2022/12/25 09:50:54;;;;;;;5.60;3.10;;;10.20;99.90;;;;;;5039904;28;20025;-40
2022/12/25 09:53:25;;;;;;;4.30;2.63;;;10.20;99.90;;;;;;5039282;28;20059;-35
2022/12/25 09:56:08;;;;;;;5.97;3.95;;;10.30;99.90;;;;;;5040208;28;20032;-40
2022/12/25 09:58:33;;;;;;;5.57;3.10;;;10.30;99.90;;;;;;5040138;28;20083;-38
2022/12/25 10:01:11;;;;;;;6.10;3.08;;;10.30;99.90;;;;;;5040600;28;20058;-39
2022/12/25 10:04:07;;;;;;;6.10;2.92;;;10.30;99.90;;;;;;5040658;28;20029;-40
2022/12/25 10:06:58;;;;;;;6.05;3.00;;;10.30;99.90;;;;;;5040200;28;20143;-40
2022/12/25 10:09:50;;;;;;;3.05;2.67;;;10.30;99.90;;;;;;5041555;28;20120;-40
2022/12/25 10:12:36;;;;;;;5.00;3.23;;;10.30;99.90;;;;;;5046496;28;20021;-38
2022/12/25 10:15:20;;;;;;;5.25;2.60;;;10.30;99.90;;;;;;5030202;28;20037;-39
2022/12/25 10:18:05;;;;;;;4.95;2.70;;;10.30;99.90;;;;;;5041478;28;20055;-40
2022/12/25 10:20:36;;;;;;;3.58;2.60;;;10.30;99.90;;;;;;5040585;28;20041;-40
2022/12/25 10:23:11;;;;;;;4.75;2.40;;;10.30;99.90;;;;;;5040366;28;20024;-39
2022/12/25 10:25:38;;;;;;;3.70;2.50;;;10.40;99.90;;;;;;5040571;28;20053;-40
2022/12/25 10:28:11;;;;;;;6.22;2.78;;;10.40;99.90;;;;;;5038493;28;20044;-40
2022/12/25 10:30:41;;;;;;;4.63;2.92;;;10.40;99.90;;;;;;5041363;28;20021;-39
2022/12/25 10:33:11;;;;;;;13.00;6.43;;;10.40;99.90;;;;;;5038352;28;20094;-40
2022/12/25 10:35:37;;;;;;;16.75;9.40;;;10.40;99.90;;;;;;5039393;28;20074;-40
2022/12/25 10:38:13;;;;;;;15.63;9.40;;;10.40;99.90;;;;;;5038625;28;20462;-40
2022/12/25 10:40:59;;;;;;;19.00;12.90;;;10.40;99.90;;;;;;5039588;28;20028;-39
2022/12/25 10:43:31;;;;;;;12.85;8.73;;;10.40;99.90;;;;;;5039550;28;20431;-39
2022/12/25 10:45:57;;;;;;;11.55;7.85;;;10.40;99.90;;;;;;5030592;28;20719;-41
2022/12/25 10:48:27;;;;;;;10.35;6.88;;;10.40;99.90;;;;;;5039347;28;20108;-41
2022/12/25 10:50:54;;;;;;;10.50;6.75;;;10.40;99.90;;;;;;5039491;28;20117;-41
2022/12/25 10:53:27;;;;;;;9.30;6.07;;;10.30;99.90;;;;;;5039435;28;20743;-41
2022/12/25 10:55:57;;;;;;;9.88;6.55;;;10.40;99.90;;;;;;5037015;28;20017;-40
2022/12/25 10:58:23;;;;;;;11.02;7.47;;;10.40;99.90;;;;;;5038793;28;20668;-41
2022/12/25 11:00:57;;;;;;;11.77;6.72;;;10.40;99.90;;;;;;5039274;28;20021;-37
2022/12/25 11:03:26;;;;;;;11.35;7.20;;;10.40;99.90;;;;;;5039033;28;20059;-40
2022/12/25 11:05:53;;;;;;;9.68;6.63;;;10.40;99.90;;;;;;5035289;28;20036;-41
2022/12/25 11:08:21;;;;;;;8.82;5.70;;;10.40;99.90;;;;;;5038524;28;20041;-38
2022/12/25 11:11:04;;;;;;;6.32;5.03;;;10.40;99.90;;;;;;5039748;28;20477;-39
2022/12/25 11:13:32;;;;;;;9.50;4.53;;;10.40;99.90;;;;;;5039246;28;20037;-41
2022/12/25 11:16:03;;;;;;;7.70;4.28;;;10.40;99.90;;;;;;5039713;28;20617;-40
2022/12/25 11:18:51;;;;;;;6.00;3.95;;;10.40;99.90;;;;;;5044639;28;20033;-40
2022/12/25 11:21:31;;;;;;;5.45;3.60;;;10.40;99.90;;;;;;5043530;28;20199;-37
2022/12/25 11:23:58;;;;;;;6.75;4.30;;;10.40;99.90;;;;;;5043018;28;20020;-40
2022/12/25 11:26:25;;;;;;;4.43;3.47;;;10.30;99.90;;;;;;5043207;28;20025;-37
2022/12/25 11:28:51;;;;;;;6.28;4.03;;;10.30;99.90;;;;;;5044645;28;20049;-38
2022/12/25 11:31:20;;;;;;;5.72;4.10;;;10.30;99.90;;;;;;5042610;28;20480;-40
2022/12/25 11:33:57;;;;;;;6.85;4.28;;;10.30;99.90;;;;;;5044553;28;20049;-40
2022/12/25 11:36:45;;;;;;;10.15;5.43;;;10.30;99.90;;;;;;5042904;28;20031;-40
2022/12/25 11:39:31;;;;;;;8.88;5.90;;;10.30;99.90;;;;;;5022791;28;20359;-40
2022/12/25 11:42:12;;;;;;;10.07;6.38;;;10.30;99.90;;;;;;5041899;28;20024;-38
2022/12/25 11:44:49;;;;;;;12.95;6.35;;;10.30;99.90;;;;;;5044830;28;20029;-40
2022/12/25 11:47:29;;;;;;;8.73;5.68;;;10.30;99.90;;;;;;5042835;28;20028;-40
2022/12/25 11:50:16;;;;;;;9.43;5.50;;;10.30;99.90;;;;;;5042382;28;20567;-39
2022/12/25 11:52:44;;;;;;;9.32;4.70;;;10.30;99.90;;;;;;5042127;28;20036;-40
2022/12/25 11:55:33;;;;;;;6.68;4.75;;;10.30;99.90;;;;;;5042465;28;20861;-39
2022/12/25 11:58:07;;;;;;;8.88;5.00;;;10.30;99.90;;;;;;5038797;28;20119;-40
2022/12/25 12:00:34;;;;;;;6.60;4.43;;;10.30;99.90;;;;;;5022682;28;20029;-39
2022/12/25 12:03:02;;;;;;;8.23;4.07;;;10.30;99.90;;;;;;5042146;28;20936;-38
2022/12/25 12:05:54;;;;;;;4.85;3.90;;;10.30;99.90;;;;;;5042584;28;20031;-40
2022/12/25 12:08:20;;;;;;;4.88;3.33;;;10.40;99.90;;;;;;5039796;28;20485;-40
2022/12/25 12:11:16;;;;;;;4.72;3.58;;;10.50;99.90;;;;;;5042959;28;20036;-40
2022/12/25 12:13:55;;;;;;;5.35;3.47;;;10.40;99.90;;;;;;5040975;28;20224;-39
2022/12/25 12:16:22;;;;;;;4.93;3.70;;;10.50;99.90;;;;;;5042763;28;20032;-39
2022/12/25 12:18:48;;;;;;;5.47;3.75;;;10.50;99.90;;;;;;5042568;28;20021;-41
2022/12/25 12:21:19;;;;;;;5.75;3.72;;;10.50;99.90;;;;;;5041770;28;20024;-38
2022/12/25 12:24:03;;;;;;;7.78;3.80;;;10.60;99.90;;;;;;5039233;28;20025;-39
2022/12/25 12:26:35;;;;;;;6.28;3.88;;;10.60;99.90;;;;;;5041651;28;20068;-40
2022/12/25 12:29:03;;;;;;;5.43;3.60;;;10.60;99.90;;;;;;5041346;28;20037;-40
2022/12/25 12:31:40;;;;;;;4.35;3.60;;;10.60;99.90;;;;;;5042427;28;20020;-40
2022/12/25 12:34:16;;;;;;;4.28;3.53;;;10.70;99.90;;;;;;5037519;28;20056;-40
2022/12/25 12:36:41;;;;;;;5.45;3.55;;;10.70;99.90;;;;;;5041448;28;20047;-40
2022/12/25 12:39:21;;;;;;;6.65;3.38;;;10.70;99.90;;;;;;5041825;28;20520;-40
2022/12/25 12:41:48;;;;;;;5.05;4.00;;;10.70;99.90;;;;;;5042382;28;20571;-40
2022/12/25 12:44:16;;;;;;;5.25;3.97;;;10.80;99.90;;;;;;5041510;28;20110;-39
2022/12/25 12:46:54;;;;;;;6.43;3.90;;;10.70;99.90;;;;;;5042644;28;20593;-39
2022/12/25 12:49:26;;;;;;;4.78;3.10;;;10.80;99.90;;;;;;5041338;28;20051;-40
2022/12/25 12:52:19;;;;;;;5.25;3.20;;;10.80;99.90;;;;;;5042607;28;20110;-38
2022/12/25 12:55:15;;;;;;;3.55;2.90;;;10.80;99.90;;;;;;5042149;28;20025;-39
2022/12/25 12:57:41;;;;;;;4.78;2.67;;;10.80;99.90;;;;;;5041269;28;20050;-40
2022/12/25 13:00:18;;;;;;;3.67;2.83;;;10.80;99.90;;;;;;5041787;28;20473;-37
2022/12/25 13:03:05;;;;;;;5.50;2.80;;;10.80;99.90;;;;;;5041216;28;20644;-37
2022/12/25 13:05:41;;;;;;;4.60;2.80;;;10.80;99.90;;;;;;5042536;28;20075;-40
2022/12/25 13:08:21;;;;;;;5.32;3.00;;;10.80;99.90;;;;;;5041572;28;20559;-40
2022/12/25 13:10:51;;;;;;;4.30;3.40;;;10.80;99.90;;;;;;5031113;28;20032;-40
2022/12/25 13:13:17;;;;;;;3.90;3.15;;;10.70;99.90;;;;;;5041081;28;20602;-39
2022/12/25 13:15:46;;;;;;;3.33;3.03;;;10.80;99.90;;;;;;5041816;28;20108;-40
2022/12/25 13:18:12;;;;;;;3.20;2.92;;;10.80;99.90;;;;;;5040709;28;20504;-40
2022/12/25 13:20:55;;;;;;;5.63;3.35;;;10.80;99.90;;;;;;5041530;28;20052;-39
2022/12/25 13:23:27;;;;;;;4.10;2.65;;;10.80;99.90;;;;;;5040517;28;20098;-39
2022/12/25 13:25:59;;;;;;;3.80;2.72;;;10.80;99.90;;;;;;5038123;28;20096;-40
2022/12/25 13:28:34;;;;;;;4.05;2.50;;;10.80;99.90;;;;;;5041433;28;20626;-38
2022/12/25 13:31:16;;;;;;;4.40;2.65;;;10.80;99.90;;;;;;5036905;28;20055;-39
2022/12/25 13:33:48;;;;;;;3.90;3.00;;;10.80;99.90;;;;;;5040004;28;20041;-40
2022/12/25 13:36:14;;;;;;;2.90;2.58;;;10.80;99.90;;;;;;5037894;28;20032;-38
2022/12/25 13:38:49;;;;;;;3.92;2.90;;;10.80;99.90;;;;;;5040947;28;20029;-40
2022/12/25 13:44:23;;;;;;;4.63;2.85;;;10.80;99.90;;;;;;5041037;28;20043;-41
2022/12/25 13:46:49;;;;;;;3.88;2.72;;;10.80;99.90;;;;;;5041588;28;20028;-41
2022/12/25 13:49:20;;;;;;;5.75;3.42;;;10.90;99.90;;;;;;5040212;28;20048;-40
2022/12/25 13:51:46;;;;;;;5.43;3.30;;;10.90;99.90;;;;;;5040792;28;20131;-40
2022/12/25 13:54:14;;;;;;;5.18;3.20;;;10.90;99.90;;;;;;5041314;28;20123;-39
2022/12/25 13:56:52;;;;;;;5.57;3.53;;;10.90;99.90;;;;;;5040327;28;20028;-37
2022/12/25 13:59:23;;;;;;;5.70;3.63;;;10.90;99.90;;;;;;5040515;28;20017;-38
2022/12/25 14:01:50;;;;;;;5.90;3.97;;;10.90;99.90;;;;;;5041123;28;20508;-39
2022/12/25 14:04:22;;;;;;;4.88;3.70;;;10.90;99.90;;;;;;5041462;28;20063;-39
2022/12/25 14:06:49;;;;;;;5.97;3.40;;;10.90;99.90;;;;;;5040525;28;20063;-39
2022/12/25 14:09:15;;;;;;;5.80;3.88;;;10.90;99.90;;;;;;5040103;28;20060;-40
2022/12/25 14:11:44;;;;;;;4.70;3.80;;;10.90;99.90;;;;;;5041612;28;20124;-38
2022/12/25 14:14:19;;;;;;;5.65;3.92;;;10.90;99.90;;;;;;5040125;28;20032;-39
2022/12/25 14:16:50;;;;;;;4.35;3.50;;;10.90;99.90;;;;;;5040782;28;20469;-39
2022/12/25 14:19:33;;;;;;;6.05;4.53;;;10.90;99.90;;;;;;5041313;28;20128;-39
2022/12/25 14:21:59;;;;;;;;;;;10.90;99.90;;;;;;5041416;28;20033;-40
2022/12/25 14:24:28;;;;;;;6.65;4.30;;;10.90;99.90;;;;;;5041583;28;19908;-41
2022/12/25 14:27:05;;;;;;;4.88;4.22;;;10.90;99.90;;;;;;5040039;28;20025;-40
2022/12/25 14:29:41;;;;;;;5.13;4.50;;;10.90;99.90;;;;;;5041073;28;20083;-40
2022/12/25 14:32:15;;;;;;;6.20;4.25;;;10.90;99.90;;;;;;5040815;28;20021;-41
2022/12/25 14:34:42;;;;;;;6.25;4.55;;;10.90;99.90;;;;;;5040667;28;20053;-40
2022/12/25 14:37:16;;;;;;;5.13;4.25;;;10.90;99.90;;;;;;5040486;28;20017;-40
2022/12/25 14:39:46;;;;;;;4.72;3.97;;;10.90;99.90;;;;;;5040854;28;20112;-40
2022/12/25 14:42:24;;;;;;;6.07;4.60;;;10.90;99.90;;;;;;5039985;28;20025;-40
2022/12/25 14:45:17;;;;;;;4.72;4.25;;;10.90;99.90;;;;;;5041417;28;20032;-40